createdAt,value
2023-05-08T00:00:37.084Z,16.07
2023-05-08T00:05:42.614Z,14.50
2023-05-08T00:10:45.231Z,14.23
2023-05-08T00:15:47.814Z,15.10
2023-05-08T00:20:50.543Z,15.03
2023-05-08T00:25:52.947Z,15.10
2023-05-08T00:30:55.499Z,14.13
2023-05-08T00:36:05.354Z,15.47
2023-05-08T00:41:08.088Z,16.17
2023-05-08T00:46:11.672Z,14.93
2023-05-08T00:51:15.246Z,14.50
2023-05-08T00:56:20.731Z,15.23
2023-05-08T01:01:23.898Z,16.67
2023-05-08T01:06:26.786Z,14.87
2023-05-08T01:12:13.445Z,16.67
2023-05-08T01:17:31.145Z,16.67
2023-05-08T01:23:24.009Z,16.77
2023-05-08T01:28:53.697Z,15.40
2023-05-08T01:34:02.165Z,16.07
2023-05-08T01:39:11.187Z,17.00
2023-05-08T01:44:21.472Z,18.00
2023-05-08T01:49:25.657Z,17.63
2023-05-08T01:54:34.002Z,18.47
2023-05-08T01:59:38.422Z,17.67
2023-05-08T02:04:43.361Z,17.37
2023-05-08T02:09:47.005Z,17.17
2023-05-08T02:14:53.130Z,17.93
2023-05-08T02:19:58.164Z,18.30
2023-05-08T02:25:01.785Z,17.70
2023-05-08T02:30:05.055Z,17.47
2023-05-08T02:35:09.236Z,17.83
2023-05-08T02:40:14.339Z,18.30
2023-05-08T02:45:17.427Z,18.47
2023-05-08T02:50:27.276Z,18.90
2023-05-08T02:55:50.712Z,17.00
2023-05-08T03:01:06.751Z,18.63
2023-05-08T03:06:17.130Z,16.53
2023-05-08T03:11:24.347Z,17.33
2023-05-08T03:16:31.982Z,16.20
2023-05-08T03:21:37.346Z,17.67
2023-05-08T03:26:40.137Z,16.80
2023-05-08T03:31:43.566Z,17.40
2023-05-08T03:36:46.804Z,18.67
2023-05-08T03:41:50.029Z,19.53
2023-05-08T03:46:56.048Z,19.50
2023-05-08T03:51:59.539Z,18.33
2023-05-08T03:57:02.216Z,19.43
2023-05-08T04:02:25.691Z,19.87
2023-05-08T04:07:33.933Z,17.50
2023-05-08T04:13:35.133Z,18.63
2023-05-08T04:18:44.326Z,18.77
2023-05-08T04:23:51.198Z,18.30
2023-05-08T04:28:54.286Z,21.37
2023-05-08T04:33:58.227Z,22.97
2023-05-08T04:39:01.071Z,22.77
2023-05-08T04:44:05.359Z,28.03
2023-05-08T04:49:08.126Z,27.27
2023-05-08T04:54:11.376Z,11.40
2023-05-08T04:59:15.998Z,10.83
2023-05-08T05:04:19.403Z,10.63
2023-05-08T05:09:22.089Z,11.53
2023-05-08T05:14:24.948Z,12.13
2023-05-08T05:19:27.709Z,12.60
2023-05-08T05:24:30.425Z,11.27
2023-05-08T05:29:33.982Z,7.53
2023-05-08T05:34:37.020Z,7.73
2023-05-08T05:39:39.808Z,7.40
2023-05-08T05:44:42.669Z,6.80
2023-05-08T05:49:47.391Z,7.83
2023-05-08T05:54:50.972Z,6.93
2023-05-08T05:59:54.853Z,7.40
2023-05-08T06:04:59.372Z,5.87
2023-05-08T06:10:02.229Z,4.50
2023-05-08T06:15:05.250Z,5.43
2023-05-08T06:20:08.710Z,3.83
2023-05-08T06:25:11.406Z,4.60
2023-05-08T06:30:14.198Z,5.67
2023-05-08T06:35:18.618Z,4.07
2023-05-08T06:40:21.241Z,4.17
2023-05-08T06:45:23.752Z,4.50
2023-05-08T06:50:26.284Z,2.80
2023-05-08T06:55:28.839Z,4.00
2023-05-08T07:00:32.361Z,3.53
2023-05-08T07:05:34.828Z,5.07
2023-05-08T07:10:37.278Z,3.47
2023-05-08T07:15:39.801Z,3.47
2023-05-08T07:20:42.337Z,3.97
2023-05-08T07:25:44.822Z,3.03
2023-05-08T07:30:47.474Z,3.13
2023-05-08T07:35:49.897Z,3.87
2023-05-08T07:40:57.119Z,3.77
2023-05-08T07:45:59.800Z,3.50
2023-05-08T07:51:02.352Z,3.40
2023-05-08T07:56:05.726Z,2.80
2023-05-08T08:01:08.154Z,3.57
2023-05-08T08:06:10.775Z,3.30
2023-05-08T08:11:13.315Z,3.13
2023-05-08T08:16:15.783Z,3.13
2023-05-08T08:21:18.470Z,2.97
2023-05-08T08:26:21.045Z,3.00
2023-05-08T08:31:23.732Z,3.73
2023-05-08T08:36:26.313Z,3.77
2023-05-08T08:41:29.461Z,2.83
2023-05-08T08:46:35.647Z,4.03
2023-05-08T08:51:51.244Z,3.63
2023-05-08T08:56:55.908Z,2.83
2023-05-08T09:02:05.948Z,4.13
2023-05-08T09:07:09.076Z,4.23
2023-05-08T09:12:14.439Z,3.73
2023-05-08T09:17:16.891Z,3.30
2023-05-08T09:22:21.224Z,2.87
2023-05-08T09:27:25.853Z,2.93
2023-05-08T09:32:29.758Z,3.33
2023-05-08T09:37:32.458Z,2.53
2023-05-08T09:42:41.372Z,3.33
2023-05-08T09:47:49.125Z,2.80
2023-05-08T09:52:52.136Z,3.83
2023-05-08T09:57:54.910Z,4.43
2023-05-08T10:02:59.030Z,3.33
2023-05-08T10:08:23.304Z,3.20
2023-05-08T10:13:26.283Z,3.83
2023-05-08T10:18:35.546Z,2.70
2023-05-08T10:23:42.439Z,4.33
2023-05-08T10:29:08.869Z,4.63
2023-05-08T10:34:17.374Z,2.73
2023-05-08T10:39:20.823Z,2.30
2023-05-08T10:44:24.484Z,4.00
2023-05-08T10:49:51.853Z,3.43
2023-05-08T10:54:54.230Z,2.87
2023-05-08T10:59:56.788Z,3.63
2023-05-08T11:05:18.433Z,3.10
2023-05-08T11:10:21.165Z,2.27
2023-05-08T11:15:40.687Z,2.50
2023-05-08T11:20:57.709Z,3.27
2023-05-08T11:26:05.553Z,3.33
2023-05-08T11:31:08.959Z,2.50
2023-05-08T11:36:20.671Z,3.37
2023-05-08T11:41:24.596Z,3.70
2023-05-08T11:46:41.175Z,3.80
2023-05-08T11:51:54.828Z,2.80
2023-05-08T11:56:57.650Z,3.13
2023-05-08T12:02:08.454Z,4.17
2023-05-08T12:07:11.933Z,3.10
2023-05-08T12:12:14.455Z,2.70
2023-05-08T12:17:20.172Z,1.90
2023-05-08T12:22:22.718Z,3.07
2023-05-08T12:27:25.241Z,4.07
2023-05-08T12:32:29.092Z,2.70
2023-05-08T12:37:31.811Z,3.37
2023-05-08T12:42:43.914Z,3.60
2023-05-08T12:47:50.954Z,2.90
2023-05-08T12:52:54.082Z,4.17
2023-05-08T12:58:15.460Z,2.93
2023-05-08T13:03:26.691Z,3.40
2023-05-08T13:08:33.585Z,2.63
2023-05-08T13:13:37.137Z,3.63
2023-05-08T13:18:39.830Z,3.30
2023-05-08T13:23:43.505Z,2.33
2023-05-08T13:28:46.184Z,2.43
2023-05-08T13:33:48.616Z,2.33
2023-05-08T13:38:57.230Z,3.63
2023-05-08T13:44:11.120Z,2.47
2023-05-08T13:49:13.607Z,3.57
2023-05-08T13:54:16.168Z,2.50
2023-05-08T13:59:18.552Z,2.87
2023-05-08T14:04:21.103Z,3.00
2023-05-08T14:09:23.584Z,2.30
2023-05-08T14:14:26.032Z,2.87
2023-05-08T14:19:28.425Z,2.33
2023-05-08T14:24:30.830Z,2.10
2023-05-08T14:29:34.277Z,2.50
2023-05-08T14:34:36.931Z,2.47
2023-05-08T14:39:39.615Z,3.70
2023-05-08T14:44:42.245Z,2.30
2023-05-08T14:49:44.856Z,2.90
2023-05-08T14:54:53.053Z,3.90
2023-05-08T14:59:57.169Z,3.40
2023-05-08T15:04:59.804Z,3.57
2023-05-08T15:10:03.308Z,2.30
2023-05-08T15:15:06.380Z,1.97
2023-05-08T15:20:09.860Z,2.90
2023-05-08T15:25:28.396Z,2.70
2023-05-08T15:30:56.540Z,2.20
2023-05-08T15:35:58.965Z,2.20
2023-05-08T15:41:01.337Z,2.87
2023-05-08T15:46:03.953Z,2.70
2023-05-08T15:51:06.430Z,1.93
2023-05-08T15:56:09.200Z,2.40
2023-05-08T16:01:11.733Z,2.70
2023-05-08T16:06:14.219Z,2.83
2023-05-08T16:11:16.725Z,1.83
2023-05-08T16:16:19.294Z,3.60
2023-05-08T16:21:22.783Z,2.87
2023-05-08T16:26:26.352Z,3.10
2023-05-08T16:31:29.139Z,2.73
2023-05-08T16:36:31.837Z,3.07
2023-05-08T16:41:34.382Z,2.43
2023-05-08T16:46:36.814Z,2.83
2023-05-08T16:51:39.360Z,2.40
2023-05-08T16:56:41.855Z,3.10
2023-05-08T17:01:44.532Z,3.07
2023-05-08T17:06:47.265Z,2.47
2023-05-08T17:11:49.731Z,2.90
2023-05-08T17:16:52.094Z,3.47
2023-05-08T17:21:54.462Z,3.00
2023-05-08T17:26:56.944Z,2.77
2023-05-08T17:31:59.435Z,3.33
2023-05-08T17:37:02.062Z,2.97
2023-05-08T17:42:04.645Z,3.67
2023-05-08T17:47:07.126Z,3.67
2023-05-08T17:52:09.689Z,3.60
2023-05-08T17:57:12.260Z,3.33
2023-05-08T18:02:14.914Z,3.37
2023-05-08T18:07:17.648Z,2.77
2023-05-08T18:12:20.237Z,4.20
2023-05-08T18:17:23.103Z,3.97
2023-05-08T18:22:26.392Z,3.07
2023-05-08T18:27:28.874Z,3.60
2023-05-08T18:32:31.393Z,3.83
2023-05-08T18:37:34.712Z,3.83
2023-05-08T18:42:37.426Z,3.47
2023-05-08T18:47:40.023Z,4.30
2023-05-08T18:52:42.537Z,3.37
2023-05-08T18:57:44.959Z,4.03
2023-05-08T19:02:47.544Z,3.47
2023-05-08T19:07:50.083Z,3.77
2023-05-08T19:12:52.718Z,3.27
2023-05-08T19:17:55.223Z,3.60
2023-05-08T19:22:57.904Z,4.73
2023-05-08T19:28:00.397Z,5.50
2023-05-08T19:33:03.006Z,5.93
2023-05-08T19:38:05.642Z,8.70
2023-05-08T19:43:08.148Z,10.97
2023-05-08T19:48:17.367Z,9.83
2023-05-08T19:53:20.675Z,12.07
2023-05-08T19:58:23.466Z,10.33
2023-05-08T20:03:26.386Z,10.87
2023-05-08T20:08:29.249Z,17.53
2023-05-08T20:13:31.761Z,14.77
2023-05-08T20:18:35.637Z,10.50
2023-05-08T20:23:39.845Z,11.43
2023-05-08T20:28:42.292Z,12.03
2023-05-08T20:33:44.742Z,10.57
2023-05-08T20:38:47.386Z,12.10
2023-05-08T20:43:49.890Z,13.40
2023-05-08T20:48:52.435Z,14.10
2023-05-08T20:53:54.933Z,13.90
2023-05-08T20:58:57.858Z,14.77
2023-05-08T21:04:00.191Z,14.67
2023-05-08T21:09:04.106Z,13.43
2023-05-08T21:14:08.384Z,12.93
2023-05-08T21:19:13.928Z,6.97
2023-05-08T21:24:16.431Z,9.37
2023-05-08T21:29:19.238Z,10.13
2023-05-08T21:34:21.812Z,10.53
2023-05-08T21:39:24.550Z,7.40
2023-05-08T21:44:27.022Z,9.73
2023-05-08T21:49:29.507Z,10.70
2023-05-08T21:54:31.955Z,12.23
2023-05-08T21:59:34.493Z,13.47
2023-05-08T22:04:36.974Z,14.57
2023-05-08T22:09:39.373Z,17.33
2023-05-08T22:14:42.210Z,20.80
2023-05-08T22:19:45.032Z,21.43
2023-05-08T22:24:47.385Z,22.87
2023-05-08T22:29:49.845Z,20.33
2023-05-08T22:34:52.462Z,19.93
2023-05-08T22:39:54.989Z,18.93
2023-05-08T22:44:57.520Z,19.27
2023-05-08T22:49:59.948Z,20.40
2023-05-08T22:55:02.981Z,18.20
2023-05-08T23:00:07.257Z,15.43
2023-05-08T23:05:10.373Z,12.87
2023-05-08T23:10:14.320Z,11.57
2023-05-08T23:15:16.973Z,11.97
2023-05-08T23:20:19.733Z,11.23
2023-05-08T23:25:22.278Z,10.97
2023-05-08T23:30:24.719Z,10.93
2023-05-08T23:35:28.443Z,5.60
2023-05-08T23:40:30.930Z,8.13
2023-05-08T23:45:33.496Z,12.13
2023-05-08T23:50:36.044Z,14.10
2023-05-08T23:55:38.470Z,15.53
